Blaisdell, North Dakota
Current Conditions -  °F | °C
As of 5:58 PM on Saturday 25 Oct 2014 (Local Time) from KMIB Reporting Station
Clear Clear  
Wind Chill: 57°   Ceiling: Unl
Heat Index: 57°   Visibility: 10mi
Dew Point: 30°   Wind: 6mph
Humidity: 35%   Direction: 130°SE
Pressure: 30"   Gusts: NA
Location:  48.3281°N, 101.856°W
Report Text: KMIB 252258Z AUTO 13005KT 10SM CLR 14/M01 A3000 RMK AO2 VIS 1/2 RWY11 SLP174 T01391013 $
Loading
Personal Weather Stations






























Interactive Weather Map
Tropical Storm Tracking
New forecast layout! Learn more

10-Day Weather Forecast

Advertisements
Track Severe Weather on mobile